Latest Weather Observations for Adele Island

IDW60801

Issued at 6:33 pm WST Monday 16 January 2017 (issued every 30 minutes, with the page automatically refreshed every 10 minutes)

About weather observations | Map of weather stations | Latest weather observations for WA | Other Formats
Station Details ID: 200735 Name: ADELE ISLAND Lat: -15.51 Lon: 123.16 Height: 4.6 m
Data from the previous 72 hours. | See also: Recent months at Adele Island
Date/Time
WST
Temp
°C
App
Temp
°C
Dew
Point
°C
Rel
Hum
%
Delta-T
°C
Wind Press
QNH
hPa
Press
MSL
hPa
Rain since
9am
mm
Dir  Spd
km/h
Gust
km/h
Spd
kts
Gust
kts
16/06:30pm 29.0 - - - - NNW 17 20 9 11 1006.8 1006.7 -
16/06:00pm 29.0 - - - - N 20 26 11 14 1006.4 1006.3 -
16/05:30pm 29.3 - - - - NNW 20 22 11 12 1006.2 1006.1 -
16/05:00pm 29.2 - - - - NNW 17 20 9 11 1006.0 1005.9 -
16/04:30pm 29.4 - - - - N 19 20 10 11 1005.9 1005.8 -
16/04:00pm 29.6 - - - - NNW 19 22 10 12 1005.7 1005.6 -
16/03:30pm 29.6 - - - - NNW 20 24 11 13 1005.5 1005.4 -
16/03:00pm 30.1 - - - - NNW 17 20 9 11 1005.9 1005.8 -
16/02:30pm 29.6 - - - - NNW 15 17 8 9 1006.1 1006.0 -
16/02:00pm 29.6 - - - - N 15 19 8 10 1006.4 1006.3 -
16/01:30pm 30.1 - - - - N 15 19 8 10 1006.7 1006.6 -
16/01:00pm 29.8 - - - - N 17 20 9 11 1007.3 1007.2 -
16/12:30pm 30.2 - - - - N 15 17 8 9 1007.6 1007.5 -
16/12:00pm 29.9 - - - - N 15 17 8 9 1007.7 1007.6 -
16/11:30am 29.6 - - - - N 15 17 8 9 1007.8 1007.7 -
16/11:00am 29.6 - - - - N 15 19 8 10 1008.0 1007.9 -
16/10:30am 29.9 - - - - N 15 19 8 10 1008.3 1008.2 -
16/10:00am 29.7 - - - - N 15 19 8 10 1008.7 1008.6 -
16/09:30am 29.7 - - - - N 17 20 9 11 1008.8 1008.7 -
16/09:00am 29.3 - - - - N 15 17 8 9 1008.9 1008.8 -
16/08:30am 29.5 - - - - N 15 19 8 10 1008.8 1008.7 -
16/08:00am 29.1 - - - - N 15 17 8 9 1008.6 1008.5 -
16/07:30am 29.0 - - - - N 17 20 9 11 1008.4 1008.3 -
16/07:00am 28.7 - - - - N 17 19 9 10 1008.3 1008.2 -
16/06:30am 28.6 - - - - N 15 17 8 9 1008.3 1008.2 -
16/06:00am 28.4 - - - - NNW 13 15 7 8 1008.1 1008.0 -
16/05:30am 28.4 - - - - NNW 13 17 7 9 1007.7 1007.6 -
16/05:00am 28.5 - - - - N 13 15 7 8 1007.6 1007.5 -
16/04:30am 28.7 - - - - NNW 17 19 9 10 1007.4 1007.3 -
16/04:00am 28.6 - - - - N 13 15 7 8 1007.0 1006.9 -
16/03:30am 28.6 - - - - NNW 17 19 9 10 1007.0 1006.9 -
16/03:00am 28.6 - - - - NNW 15 17 8 9 1007.0 1006.9 -
16/02:30am 28.7 - - - - NNW 15 19 8 10 1007.1 1007.0 -
16/02:00am 28.7 - - - - N 13 17 7 9 1007.3 1007.2 -
16/01:30am 28.8 - - - - NNW 15 17 8 9 1007.5 1007.4 -
16/01:00am 28.8 - - - - NNW 15 19 8 10 1007.6 1007.5 -
16/12:30am 28.8 - - - - NNW 15 17 8 9 1007.8 1007.7 -
16/12:00am 28.7 - - - - NNW 17 19 9 10 1007.9 1007.8 -
 
Date/Time
WST
Temp
°C
App
Temp
°C
Dew
Point
°C
Rel
Hum
%
Delta-T
°C
Wind Press
QNH
hPa
Press
MSL
hPa
Rain since
9am
mm
Dir  Spd
km/h
Gust
km/h
Spd
kts
Gust
kts
15/11:30pm 29.0 - - - - NNW 19 20 10 11 1008.0 1007.9 -
15/11:00pm 29.0 - - - - NNW 19 20 10 11 1008.3 1008.2 -
15/10:30pm 29.0 - - - - NNW 19 22 10 12 1008.8 1008.7 -
15/10:00pm 28.8 - - - - N 17 20 9 11 1008.8 1008.7 -
15/09:30pm 28.8 - - - - N 17 17 9 9 1008.8 1008.7 -
15/09:00pm 28.9 - - - - N 15 17 8 9 1008.8 1008.7 -
15/08:30pm 28.9 - - - - N 13 13 7 7 1008.7 1008.6 -
15/08:00pm 28.8 - - - - N 11 13 6 7 1008.6 1008.5 -
15/07:30pm 29.1 - - - - N 13 15 7 8 1008.4 1008.3 -
15/07:00pm 29.2 - - - - N 15 17 8 9 1008.0 1007.9 -
15/06:30pm 29.3 - - - - N 13 17 7 9 1007.7 1007.6 -
15/06:00pm 29.3 - - - - NNW 13 17 7 9 1007.5 1007.4 -
15/05:30pm 29.5 - - - - NNW 13 17 7 9 1007.2 1007.1 -
15/05:00pm 29.6 - - - - NNW 13 17 7 9 1006.9 1006.8 -
15/04:30pm 29.7 - - - - N 17 20 9 11 1006.7 1006.6 -
15/04:00pm 29.7 - - - - N 19 20 10 11 1006.7 1006.6 -
15/03:30pm 29.6 - - - - NNW 17 20 9 11 1006.7 1006.6 -
15/03:00pm 29.6 - - - - NNW 20 24 11 13 1006.7 1006.6 -
15/02:30pm 30.0 - - - - NNW 20 24 11 13 1007.1 1007.0 -
15/02:00pm 29.6 - - - - N 20 24 11 13 1007.5 1007.4 -
15/01:30pm 29.6 - - - - NNW 19 20 10 11 1007.7 1007.6 -
15/01:00pm 30.0 - - - - N 13 17 7 9 1007.9 1007.8 -
15/12:30pm 30.3 - - - - N 17 20 9 11 1008.3 1008.2 -
15/12:00pm 29.6 - - - - N 17 20 9 11 1008.5 1008.4 -
15/11:30am 29.2 - - - - N 19 20 10 11 1008.6 1008.5 -
15/11:00am 29.5 - - - - N 17 20 9 11 1008.7 1008.6 -
15/10:30am 29.5 - - - - N 17 20 9 11 1008.8 1008.7 -
15/10:00am 29.3 - - - - N 15 19 8 10 1009.0 1008.9 -
15/09:30am 29.5 - - - - N 17 19 9 10 1009.0 1008.9 -
15/09:00am 29.2 - - - - N 11 15 6 8 1009.2 1009.1 -
15/08:30am 29.1 - - - - NNW 11 20 6 11 1009.2 1009.1 -
15/08:00am 29.0 - - - - N 13 17 7 9 1009.2 1009.1 -
15/07:30am 28.7 - - - - N 13 15 7 8 1008.9 1008.8 -
15/07:00am 28.4 - - - - N 11 15 6 8 1008.5 1008.4 -
15/06:30am 28.3 - - - - N 13 13 7 7 1008.4 1008.3 -
15/06:00am 28.2 - - - - N 13 17 7 9 1008.2 1008.1 -
15/05:30am 28.0 - - - - N 11 13 6 7 1008.2 1008.1 -
15/05:00am 27.8 - - - - N 13 15 7 8 1008.1 1008.0 -
15/04:30am 27.6 - - - - NNW 11 13 6 7 1007.9 1007.8 -
15/04:00am 27.3 - - - - WNW 13 15 7 8 1007.8 1007.7 -
15/03:30am 26.0 - - - - WNW 35 43 19 23 1007.7 1007.6 -
15/03:22am 26.4 - - - - NW 24 43 13 23 1007.6 1007.5 -
15/03:00am 28.4 - - - - N 15 20 8 11 1007.5 1007.4 -
15/02:30am 28.7 - - - - N 13 15 7 8 1007.4 1007.3 -
15/02:00am 28.7 - - - - N 13 13 7 7 1007.5 1007.4 -
15/01:30am 28.8 - - - - N 13 15 7 8 1007.7 1007.6 -
15/01:00am 28.8 - - - - NNW 13 15 7 8 1007.8 1007.7 -
15/12:30am 28.8 - - - - NNW 17 19 9 10 1007.9 1007.8 -
15/12:00am 28.8 - - - - NNW 15 17 8 9 1008.1 1008.0 -
 
Date/Time
WST
Temp
°C
App
Temp
°C
Dew
Point
°C
Rel
Hum
%
Delta-T
°C
Wind Press
QNH
hPa
Press
MSL
hPa
Rain since
9am
mm
Dir  Spd
km/h
Gust
km/h
Spd
kts
Gust
kts
14/11:30pm 29.0 - - - - NNW 17 19 9 10 1008.3 1008.2 -
14/11:00pm 28.8 - - - - NNW 15 17 8 9 1008.7 1008.6 -
14/10:30pm 28.8 - - - - N 15 17 8 9 1008.8 1008.7 -
14/10:00pm 28.9 - - - - NNW 17 17 9 9 1008.8 1008.7 -
14/09:30pm 28.9 - - - - N 15 17 8 9 1008.8 1008.7 -
14/09:00pm 28.9 - - - - N 11 13 6 7 1008.5 1008.4 -
14/08:30pm 28.6 - - - - N 9 11 5 6 1008.4 1008.3 -
14/08:00pm 28.7 - - - - NNW 11 11 6 6 1008.2 1008.1 -
14/07:30pm 28.6 - - - - NNW 11 13 6 7 1007.9 1007.8 -
14/07:00pm 28.4 - - - - NNW 6 11 3 6 1007.5 1007.4 -
14/06:30pm 28.6 - - - - N 7 11 4 6 1006.9 1006.8 -
14/06:00pm 28.9 - - - - NNW 11 13 6 7 1006.7 1006.6 -
14/05:30pm 29.0 - - - - NNW 13 15 7 8 1006.2 1006.1 -
14/05:00pm 29.2 - - - - NNW 13 15 7 8 1006.0 1005.9 -
14/04:30pm 29.2 - - - - NNW 13 19 7 10 1005.9 1005.8 -
14/04:00pm 29.4 - - - - NNW 11 15 6 8 1005.9 1005.8 -
14/03:30pm 29.1 - - - - WNW 11 15 6 8 1005.9 1005.8 -
14/03:00pm 29.3 - - - - NW 17 30 9 16 1005.9 1005.8 -
14/02:30pm 29.8 - - - - WNW 13 19 7 10 1006.3 1006.2 -
14/02:00pm 30.4 - - - - WNW 15 17 8 9 1006.7 1006.6 -
14/01:30pm 30.0 - - - - NW 17 20 9 11 1007.0 1006.9 -
14/01:00pm 29.9 - - - - NW 17 20 9 11 1007.1 1007.0 -
14/12:30pm 29.8 - - - - NW 17 19 9 10 1007.2 1007.1 -
14/12:00pm 30.0 - - - - NW 17 20 9 11 1007.3 1007.2 -
14/11:30am 29.6 - - - - WNW 17 20 9 11 1007.4 1007.3 -
14/11:00am 29.9 - - - - NW 15 20 8 11 1007.5 1007.4 -
14/10:30am 29.6 - - - - NW 17 20 9 11 1007.6 1007.5 -
14/10:00am 29.7 - - - - WNW 13 17 7 9 1007.9 1007.8 -
14/09:30am 28.1 - - - - WNW 17 24 9 13 1008.1 1008.0 -
14/09:00am 29.4 - - - - WNW 15 19 8 10 1008.1 1008.0 -
14/08:30am 28.3 - - - - W 17 20 9 11 1008.1 1008.0 -
14/08:00am 29.7 - - - - WNW 15 20 8 11 1008.0 1007.9 -
14/07:30am 29.0 - - - - NW 13 15 7 8 1007.9 1007.8 -
14/07:00am 28.7 - - - - NW 15 19 8 10 1007.7 1007.6 -
14/06:30am 28.6 - - - - WNW 15 19 8 10 1007.3 1007.2 -
14/06:00am 28.3 - - - - WNW 17 20 9 11 1006.8 1006.7 -
14/05:30am 28.2 - - - - WNW 20 24 11 13 1006.5 1006.4 -
14/05:00am 28.2 - - - - WNW 20 24 11 13 1006.2 1006.1 -
14/04:30am 28.2 - - - - WNW 22 26 12 14 1006.1 1006.0 -
14/04:00am 28.4 - - - - WNW 19 24 10 13 1006.1 1006.0 -
14/03:30am 28.4 - - - - WNW 19 24 10 13 1006.1 1006.0 -
14/03:00am 28.5 - - - - WNW 20 24 11 13 1005.9 1005.8 -
14/02:30am 28.6 - - - - WNW 22 26 12 14 1006.0 1005.9 -
14/02:00am 28.8 - - - - WNW 26 30 14 16 1006.1 1006.0 -
14/01:30am 28.9 - - - - WNW 24 32 13 17 1006.5 1006.4 -
14/01:00am 28.9 - - - - NW 24 30 13 16 1006.5 1006.4 -
14/12:30am 28.9 - - - - NW 22 28 12 15 1006.8 1006.7 -
14/12:00am 28.9 - - - - NW 22 26 12 14 1007.2 1007.1 -
 
Date/Time
WST
Temp
°C
App
Temp
°C
Dew
Point
°C
Rel
Hum
%
Delta-T
°C
Wind Press
QNH
hPa
Press
MSL
hPa
Rain since
9am
mm
Dir  Spd
km/h
Gust
km/h
Spd
kts
Gust
kts
13/11:30pm 29.0 - - - - NW 20 26 11 14 1007.6 1007.5 -
13/11:00pm 28.9 - - - - NW 26 32 14 17 1007.9 1007.8 -
13/10:30pm 29.0 - - - - NW 24 30 13 16 1007.9 1007.8 -
13/10:00pm 28.9 - - - - WNW 24 30 13 16 1008.0 1007.9 -
13/09:30pm 28.8 - - - - WNW 26 30 14 16 1007.7 1007.6 -
13/09:00pm 28.8 - - - - WNW 20 24 11 13 1007.6 1007.5 -
13/08:30pm 28.7 - - - - WNW 22 28 12 15 1007.2 1007.1 -
13/08:00pm 28.6 - - - - WNW 20 24 11 13 1006.9 1006.8 -
13/07:30pm 28.6 - - - - WNW 24 28 13 15 1006.6 1006.5 -
13/07:00pm 28.8 - - - - WNW 20 26 11 14 1006.1 1006.0 -

Other Formats:

Comma delimited format used in spreadsheet applications
http://www.bom.gov.au/fwo/IDW60801/IDW60801.94210.axf

JavaScript Object Notation format (JSON) in row-major order
http://www.bom.gov.au/fwo/IDW60801/IDW60801.94210.json